Time;durP1;ratioP1;P1;durP2;ratioP2;P2;SDS_P1;SDS_P2;PMS_P1;PMS_P2;Temp;Humidity;BMP_temperature;BMP_pressure;BME280_temperature;BME280_humidity;BME280_pressure;Samples;Min_cycle;Max_cycle;Signal;HPM_P1;HPM_P2
2022/12/31 00:01:48;;;;;;;;;;;;;;;;;;5024577;28;20462;-57
2022/12/31 00:04:13;;;;;;;;;;;;;;;;;;5027253;28;19927;-57
2022/12/31 00:06:39;;;;;;;;;;;;;;;;;;5024985;28;20414;-57
2022/12/31 00:09:05;;;;;;;;;;;;;;;;;;5026738;28;20483;-57
2022/12/31 00:11:31;;;;;;;;;;;;;;;;;;5025803;28;20399;-58
2022/12/31 00:13:57;;;;;;;;;;;;;;;;;;5025611;28;20468;-57
2022/12/31 00:16:23;;;;;;;;;;;;;;;;;;5024525;28;20000;-57
2022/12/31 00:18:49;;;;;;;;;;;;;;;;;;5025558;28;19925;-57
2022/12/31 00:21:15;;;;;;;;;;;;;;;;;;5026405;28;19927;-57
2022/12/31 00:23:41;;;;;;;;;;;;;;;;;;5026449;28;20011;-57
2022/12/31 00:26:07;;;;;;;;;;;;;;;;;;5025532;28;19921;-57
2022/12/31 00:28:33;;;;;;;;;;;;;;;;;;5027087;28;19925;-57
2022/12/31 00:30:59;;;;;;;;;;;;;;;;;;5023889;28;19929;-57
2022/12/31 00:33:25;;;;;;;;;;;;;;;;;;5026054;28;21876;-57
2022/12/31 00:35:50;;;;;;;;;;;;;;;;;;5025933;28;19949;-57
2022/12/31 00:38:16;;;;;;;;;;;;;;;;;;5025410;28;20421;-57
2022/12/31 00:40:42;;;;;;;;;;;;;;;;;;5025473;28;19921;-57
2022/12/31 00:43:08;;;;;;;;;;;;;;;;;;5025085;28;19968;-57
2022/12/31 00:45:34;;;;;;;;;;;;;;;;;;5025875;28;20577;-57
2022/12/31 00:48:00;;;;;;;;;;;;;;;;;;5025169;28;19926;-57
2022/12/31 00:50:26;;;;;;;;;;;;;;;;;;5025520;28;20504;-56
2022/12/31 00:52:52;;;;;;;;;;;;;;;;;;5025465;28;19929;-57
2022/12/31 00:55:18;;;;;;;;;;;;;;;;;;5026761;28;19924;-57
2022/12/31 00:57:44;;;;;;;;;;;;;;;;;;5024734;28;19925;-57
2022/12/31 01:00:10;;;;;;;;;;;;;;;;;;5021685;28;20399;-57
2022/12/31 01:02:36;;;;;;;;;;;;;;;;;;5025534;28;19928;-57
2022/12/31 01:05:02;;;;;;;;;;;;;;;;;;5022388;28;19971;-57
2022/12/31 01:07:28;;;;;;;;;;;;;;;;;;5020620;28;20369;-57
2022/12/31 01:09:54;;;;;;;;;;;;;;;;;;5024738;28;19956;-57
2022/12/31 01:12:20;;;;;;;;;;;;;;;;;;5025197;28;19972;-57
2022/12/31 01:14:46;;;;;;;;;;;;;;;;;;5019938;28;20738;-57
2022/12/31 01:17:12;;;;;;;;;;;;;;;;;;5022266;28;20056;-57
2022/12/31 01:19:38;;;;;;;;;;;;;;;;;;5025219;28;19925;-57
2022/12/31 01:22:04;;;;;;;;;;;;;;;;;;5026411;28;19921;-57
2022/12/31 01:24:30;;;;;;;;;;;;;;;;;;5024006;28;19921;-58
2022/12/31 01:26:56;;;;;;;;;;;;;;;;;;5024142;28;19925;-59
2022/12/31 01:29:22;;;;;;;;;;;;;;;;;;5022565;28;19921;-57
2022/12/31 01:31:48;;;;;;;;;;;;;;;;;;5025741;28;19921;-57
2022/12/31 01:34:14;;;;;;;;;;;;;;;;;;5024601;28;19929;-57
2022/12/31 01:36:40;;;;;;;;;;;;;;;;;;5025942;28;19947;-57
2022/12/31 01:39:06;;;;;;;;;;;;;;;;;;5024953;28;20670;-57
2022/12/31 01:41:32;;;;;;;;;;;;;;;;;;5024874;28;19921;-57
2022/12/31 01:43:58;;;;;;;;;;;;;;;;;;5022270;28;19921;-57
2022/12/31 01:46:24;;;;;;;;;;;;;;;;;;5025037;28;19925;-57
2022/12/31 01:48:50;;;;;;;;;;;;;;;;;;5023015;28;20319;-57
2022/12/31 01:51:16;;;;;;;;;;;;;;;;;;5025400;28;19921;-57
2022/12/31 01:53:42;;;;;;;;;;;;;;;;;;5025067;28;19952;-57
2022/12/31 01:56:08;;;;;;;;;;;;;;;;;;5024807;28;19925;-57
2022/12/31 01:58:33;;;;;;;;;;;;;;;;;;5022812;28;19956;-57
2022/12/31 02:00:59;;;;;;;;;;;;;;;;;;5022044;28;19957;-57
2022/12/31 02:03:25;;;;;;;;;;;;;;;;;;5023352;28;20434;-57
2022/12/31 02:05:51;;;;;;;;;;;;;;;;;;5023780;28;19968;-57
2022/12/31 02:08:17;;;;;;;;;;;;;;;;;;5024907;28;20044;-57
2022/12/31 02:10:43;;;;;;;;;;;;;;;;;;5023564;28;19921;-57
2022/12/31 02:13:09;;;;;;;;;;;;;;;;;;5024432;28;19927;-57
2022/12/31 02:15:35;;;;;;;;;;;;;;;;;;5020800;28;20019;-57
2022/12/31 02:18:01;;;;;;;;;;;;;;;;;;5023226;28;19974;-57
2022/12/31 02:20:27;;;;;;;;;;;;;;;;;;5019127;28;20468;-57
2022/12/31 02:22:53;;;;;;;;;;;;;;;;;;5025326;28;20437;-58
2022/12/31 02:25:18;;;;;;;;;;;;;;;;;;5023494;28;19925;-57
2022/12/31 02:27:45;;;;;;;;;;;;;;;;;;5023567;28;20695;-57
2022/12/31 02:30:10;;;;;;;;;;;;;;;;;;5021335;28;19927;-57
2022/12/31 02:32:36;;;;;;;;;;;;;;;;;;5024157;28;19921;-57
2022/12/31 02:35:02;;;;;;;;;;;;;;;;;;5024239;28;19925;-57
2022/12/31 02:37:28;;;;;;;;;;;;;;;;;;5022568;28;19925;-57
2022/12/31 02:39:54;;;;;;;;;;;;;;;;;;5023505;28;19920;-57
2022/12/31 02:42:20;;;;;;;;;;;;;;;;;;5023287;28;19953;-57
2022/12/31 02:44:46;;;;;;;;;;;;;;;;;;5035016;28;20005;-57
2022/12/31 02:47:12;;;;;;;;;;;;;;;;;;5023965;28;19921;-60
2022/12/31 02:49:38;;;;;;;;;;;;;;;;;;5022096;28;19927;-57
2022/12/31 02:52:04;;;;;;;;;;;;;;;;;;5023954;28;20690;-57
2022/12/31 02:54:30;;;;;;;;;;;;;;;;;;5020729;28;20804;-57
2022/12/31 02:56:56;;;;;;;;;;;;;;;;;;5025453;28;19944;-57
2022/12/31 03:02:12;;;;;;;;;;;;;;;;;;5022384;28;19917;-57
2022/12/31 03:04:38;;;;;;;;;;;;;;;;;;5024536;28;19929;-57
2022/12/31 03:07:04;;;;;;;;;;;;;;;;;;5022653;28;19921;-57
2022/12/31 03:09:30;;;;;;;;;;;;;;;;;;5022991;28;21314;-57
2022/12/31 03:14:41;;;;;;;;;;;;;;;;;;5022392;28;19922;-57
2022/12/31 03:17:07;;;;;;;;;;;;;;;;;;5021843;28;19921;-57
2022/12/31 03:22:27;;;;;;;;;;;;;;;;;;5025209;28;19917;-57
2022/12/31 03:27:37;;;;;;;;;;;;;;;;;;5021191;28;20646;-57
2022/12/31 03:30:03;;;;;;;;;;;;;;;;;;5023753;28;20722;-57
2022/12/31 03:32:29;;;;;;;;;;;;;;;;;;5023858;28;19921;-57
2022/12/31 03:34:55;;;;;;;;;;;;;;;;;;5025853;28;19956;-57
2022/12/31 03:37:21;;;;;;;;;;;;;;;;;;5027827;28;20379;-57
2022/12/31 03:39:47;;;;;;;;;;;;;;;;;;5022673;28;19921;-56
2022/12/31 03:42:12;;;;;;;;;;;;;;;;;;5026140;28;20861;-57
2022/12/31 03:44:38;;;;;;;;;;;;;;;;;;5023146;28;20007;-57
2022/12/31 03:47:04;;;;;;;;;;;;;;;;;;5024038;28;20392;-57
2022/12/31 03:49:30;;;;;;;;;;;;;;;;;;5022763;28;19921;-57
2022/12/31 03:51:56;;;;;;;;;;;;;;;;;;5024605;28;19921;-57
2022/12/31 03:54:22;;;;;;;;;;;;;;;;;;5026754;28;19933;-57
2022/12/31 03:56:48;;;;;;;;;;;;;;;;;;5025797;28;19929;-57
2022/12/31 03:59:14;;;;;;;;;;;;;;;;;;5026434;28;19925;-58
2022/12/31 04:01:40;;;;;;;;;;;;;;;;;;5020274;28;20554;-57
2022/12/31 04:04:06;;;;;;;;;;;;;;;;;;5025925;28;19936;-57
2022/12/31 04:06:32;;;;;;;;;;;;;;;;;;5022831;28;19952;-57
2022/12/31 04:08:58;;;;;;;;;;;;;;;;;;5024717;28;19956;-58
2022/12/31 04:11:24;;;;;;;;;;;;;;;;;;5024682;28;20522;-58
2022/12/31 04:13:50;;;;;;;;;;;;;;;;;;5021538;28;19932;-57
2022/12/31 04:16:16;;;;;;;;;;;;;;;;;;5024874;28;20318;-57
2022/12/31 04:18:41;;;;;;;;;;;;;;;;;;5023134;28;19925;-57
2022/12/31 04:21:07;;;;;;;;;;;;;;;;;;5025648;28;19927;-57
2022/12/31 04:23:33;;;;;;;;;;;;;;;;;;5024336;28;19925;-57
2022/12/31 04:25:59;;;;;;;;;;;;;;;;;;5026151;28;19928;-57
2022/12/31 04:28:25;;;;;;;;;;;;;;;;;;5022681;28;19921;-57
2022/12/31 04:30:51;;;;;;;;;;;;;;;;;;5024379;28;19921;-57
2022/12/31 04:33:17;;;;;;;;;;;;;;;;;;5024360;28;19925;-57
2022/12/31 04:35:43;;;;;;;;;;;;;;;;;;5023318;28;19975;-57
2022/12/31 04:38:09;;;;;;;;;;;;;;;;;;5024247;28;20320;-57
2022/12/31 04:41:15;;;;;;;;;;;;;;;;;;5022014;28;20445;-57
2022/12/31 04:43:20;;;;;;;;;;;;;;;;;;5020471;28;19925;-56
2022/12/31 04:45:46;;;;;;;;;;;;;;;;;;5021761;28;19925;-57
2022/12/31 04:48:12;;;;;;;;;;;;;;;;;;5024315;28;20015;-57
2022/12/31 04:50:38;;;;;;;;;;;;;;;;;;5024794;28;19921;-57
2022/12/31 04:53:04;;;;;;;;;;;;;;;;;;5023209;28;20488;-57
2022/12/31 04:55:30;;;;;;;;;;;;;;;;;;5025438;28;21299;-57
2022/12/31 04:57:56;;;;;;;;;;;;;;;;;;5023349;28;19927;-57
2022/12/31 05:00:22;;;;;;;;;;;;;;;;;;5019962;28;20435;-57
2022/12/31 05:02:48;;;;;;;;;;;;;;;;;;5019270;28;19925;-57
2022/12/31 05:05:14;;;;;;;;;;;;;;;;;;5022680;28;19929;-57
2022/12/31 05:07:40;;;;;;;;;;;;;;;;;;5025198;28;19921;-57
2022/12/31 05:10:06;;;;;;;;;;;;;;;;;;5024097;28;19980;-56
2022/12/31 05:12:32;;;;;;;;;;;;;;;;;;5040297;28;20021;-57
2022/12/31 05:14:58;;;;;;;;;;;;;;;;;;5022521;28;19931;-57
2022/12/31 05:17:24;;;;;;;;;;;;;;;;;;5022045;28;19921;-57
2022/12/31 05:19:50;;;;;;;;;;;;;;;;;;5025954;28;19964;-57
2022/12/31 05:22:28;;;;;;;;;;;;;;;;;;5023827;28;20400;-57
2022/12/31 05:24:54;;;;;;;;;;;;;;;;;;5025099;28;19925;-57
2022/12/31 05:27:20;;;;;;;;;;;;;;;;;;5024600;28;19975;-57
2022/12/31 05:29:46;;;;;;;;;;;;;;;;;;5024455;28;20055;-57
2022/12/31 05:32:11;;;;;;;;;;;;;;;;;;5024103;28;19929;-56
2022/12/31 05:34:37;;;;;;;;;;;;;;;;;;5024304;28;20423;-57
2022/12/31 05:37:03;;;;;;;;;;;;;;;;;;5025172;28;20752;-57
2022/12/31 05:39:29;;;;;;;;;;;;;;;;;;5024952;28;19946;-57
2022/12/31 05:41:55;;;;;;;;;;;;;;;;;;5023287;28;19929;-56
2022/12/31 05:44:21;;;;;;;;;;;;;;;;;;5022782;28;19921;-57
2022/12/31 05:46:47;;;;;;;;;;;;;;;;;;5023351;28;20008;-57
2022/12/31 05:49:13;;;;;;;;;;;;;;;;;;5024551;28;19967;-57
2022/12/31 05:51:39;;;;;;;;;;;;;;;;;;5024679;28;19925;-57
2022/12/31 05:54:05;;;;;;;;;;;;;;;;;;5022954;28;19925;-57
2022/12/31 05:56:31;;;;;;;;;;;;;;;;;;5024827;28;20032;-56
2022/12/31 05:58:56;;;;;;;;;;;;;;;;;;5022954;28;20561;-56
2022/12/31 06:01:22;;;;;;;;;;;;;;;;;;5022646;28;19925;-57
2022/12/31 06:03:48;;;;;;;;;;;;;;;;;;5024407;28;20019;-57
2022/12/31 06:06:14;;;;;;;;;;;;;;;;;;5024348;28;19995;-57
2022/12/31 06:08:40;;;;;;;;;;;;;;;;;;5024026;28;19928;-57
2022/12/31 06:11:06;;;;;;;;;;;;;;;;;;5025274;28;20340;-58
2022/12/31 06:13:32;;;;;;;;;;;;;;;;;;5023814;28;19922;-57
2022/12/31 06:15:58;;;;;;;;;;;;;;;;;;5023488;28;19928;-57
2022/12/31 06:18:24;;;;;;;;;;;;;;;;;;5024488;28;19928;-57
2022/12/31 06:20:50;;;;;;;;;;;;;;;;;;5020926;28;19925;-57
2022/12/31 06:23:16;;;;;;;;;;;;;;;;;;5022845;28;19924;-57
2022/12/31 06:25:42;;;;;;;;;;;;;;;;;;5025081;28;19928;-57
2022/12/31 06:28:08;;;;;;;;;;;;;;;;;;5022248;28;20322;-57
2022/12/31 06:30:34;;;;;;;;;;;;;;;;;;5021299;28;20316;-57
2022/12/31 06:33:00;;;;;;;;;;;;;;;;;;5023105;28;19928;-57
2022/12/31 06:35:26;;;;;;;;;;;;;;;;;;5024812;28;20591;-57
2022/12/31 06:37:52;;;;;;;;;;;;;;;;;;5021284;28;20056;-57
2022/12/31 06:40:18;;;;;;;;;;;;;;;;;;5021923;28;19934;-57
2022/12/31 06:42:44;;;;;;;;;;;;;;;;;;5021219;28;19956;-57
2022/12/31 06:45:09;;;;;;;;;;;;;;;;;;5024613;28;19925;-57
2022/12/31 06:47:35;;;;;;;;;;;;;;;;;;5022776;28;19927;-57
2022/12/31 06:50:01;;;;;;;;;;;;;;;;;;5024250;28;20024;-57
2022/12/31 06:52:27;;;;;;;;;;;;;;;;;;5023313;28;20461;-57
2022/12/31 06:54:53;;;;;;;;;;;;;;;;;;5023870;28;20008;-57
2022/12/31 06:57:19;;;;;;;;;;;;;;;;;;5023735;28;20016;-57
2022/12/31 06:59:45;;;;;;;;;;;;;;;;;;5022269;28;19936;-57
2022/12/31 07:02:12;;;;;;;;;;;;;;;;;;5021816;28;20414;-57
2022/12/31 07:04:38;;;;;;;;;;;;;;;;;;5022322;28;20527;-58
2022/12/31 07:07:04;;;;;;;;;;;;;;;;;;5026037;28;20359;-57
2022/12/31 07:09:30;;;;;;;;;;;;;;;;;;5027924;28;20415;-57
2022/12/31 07:11:55;;;;;;;;;;;;;;;;;;5026297;28;20462;-57
2022/12/31 07:14:21;;;;;;;;;;;;;;;;;;5028525;28;20402;-57
2022/12/31 07:16:47;;;;;;;;;;;;;;;;;;5025591;28;20069;-57
2022/12/31 07:19:13;;;;;;;;;;;;;;;;;;5028158;28;19963;-57
2022/12/31 07:21:39;;;;;;;;;;;;;;;;;;5025996;28;19928;-57
2022/12/31 07:24:05;;;;;;;;;;;;;;;;;;5027190;28;19925;-57
2022/12/31 07:26:31;;;;;;;;;;;;;;;;;;5025663;28;20455;-57
2022/12/31 07:28:57;;;;;;;;;;;;;;;;;;5026115;28;19932;-57
2022/12/31 07:31:23;;;;;;;;;;;;;;;;;;5025045;28;20335;-57
2022/12/31 07:33:49;;;;;;;;;;;;;;;;;;5027519;28;19940;-57
2022/12/31 07:36:15;;;;;;;;;;;;;;;;;;5026435;28;20270;-57
2022/12/31 07:38:41;;;;;;;;;;;;;;;;;;5026917;28;19925;-57
2022/12/31 07:41:07;;;;;;;;;;;;;;;;;;5023362;28;19921;-57
2022/12/31 07:43:33;;;;;;;;;;;;;;;;;;5020464;28;19924;-57
2022/12/31 07:45:58;;;;;;;;;;;;;;;;;;5020038;28;19921;-57
2022/12/31 07:48:24;;;;;;;;;;;;;;;;;;5027028;28;19974;-57
2022/12/31 07:50:50;;;;;;;;;;;;;;;;;;5024041;28;19921;-57
2022/12/31 07:53:16;;;;;;;;;;;;;;;;;;5026163;28;20076;-57
2022/12/31 07:55:42;;;;;;;;;;;;;;;;;;5025767;28;19921;-57
2022/12/31 07:58:08;;;;;;;;;;;;;;;;;;5027230;28;19926;-57
2022/12/31 08:00:34;;;;;;;;;;;;;;;;;;5024614;28;19925;-57
2022/12/31 08:03:00;;;;;;;;;;;;;;;;;;5026825;28;19922;-57
2022/12/31 08:05:26;;;;;;;;;;;;;;;;;;5025925;28;19921;-57
2022/12/31 08:07:52;;;;;;;;;;;;;;;;;;5025793;28;20040;-57
2022/12/31 08:10:18;;;;;;;;;;;;;;;;;;5023062;28;19970;-57
2022/12/31 08:12:44;;;;;;;;;;;;;;;;;;5023021;28;19921;-56
2022/12/31 08:15:10;;;;;;;;;;;;;;;;;;5024039;28;20407;-58
2022/12/31 08:17:36;;;;;;;;;;;;;;;;;;5022299;28;19956;-58
2022/12/31 08:20:01;;;;;;;;;;;;;;;;;;5054959;28;19944;-57
2022/12/31 08:22:27;;;;;;;;;;;;;;;;;;5025141;28;19921;-58
2022/12/31 08:24:53;;;;;;;;;;;;;;;;;;5024832;28;19921;-57
2022/12/31 08:27:19;;;;;;;;;;;;;;;;;;5024734;28;19925;-57
2022/12/31 08:29:45;;;;;;;;;;;;;;;;;;5024938;28;20371;-57
2022/12/31 08:32:11;;;;;;;;;;;;;;;;;;5026360;28;19961;-57
2022/12/31 08:34:37;;;;;;;;;;;;;;;;;;5026113;28;19999;-57
2022/12/31 08:37:03;;;;;;;;;;;;;;;;;;5025750;28;19987;-57
2022/12/31 08:39:29;;;;;;;;;;;;;;;;;;5027281;28;21268;-57
2022/12/31 08:41:55;;;;;;;;;;;;;;;;;;5025039;28;20015;-58
2022/12/31 08:44:21;;;;;;;;;;;;;;;;;;5023002;28;19967;-57
2022/12/31 08:46:47;;;;;;;;;;;;;;;;;;5024218;28;19925;-57
2022/12/31 08:49:13;;;;;;;;;;;;;;;;;;5033605;28;19971;-57
2022/12/31 08:51:39;;;;;;;;;;;;;;;;;;5019861;28;19920;-57
2022/12/31 08:54:05;;;;;;;;;;;;;;;;;;5020857;28;19921;-57
2022/12/31 08:56:31;;;;;;;;;;;;;;;;;;5018848;28;19930;-57
2022/12/31 08:58:57;;;;;;;;;;;;;;;;;;5018227;28;20322;-57
2022/12/31 09:01:23;;;;;;;;;;;;;;;;;;5021977;28;19988;-57
2022/12/31 09:03:49;;;;;;;;;;;;;;;;;;5020201;28;19927;-57
2022/12/31 09:06:15;;;;;;;;;;;;;;;;;;5018626;28;19925;-57
2022/12/31 09:08:41;;;;;;;;;;;;;;;;;;5021850;28;20015;-59
2022/12/31 09:11:07;;;;;;;;;;;;;;;;;;5023012;28;20334;-58
2022/12/31 09:13:33;;;;;;;;;;;;;;;;;;5021707;28;19936;-57
2022/12/31 09:15:59;;;;;;;;;;;;;;;;;;5023778;28;20481;-58
2022/12/31 09:18:24;;;;;;;;;;;;;;;;;;5025593;28;19921;-57
2022/12/31 09:20:50;;;;;;;;;;;;;;;;;;5024992;28;19964;-58
2022/12/31 09:23:16;;;;;;;;;;;;;;;;;;5024479;28;19928;-57
2022/12/31 09:25:42;;;;;;;;;;;;;;;;;;5023204;28;20582;-57
2022/12/31 09:28:08;;;;;;;;;;;;;;;;;;5023268;28;19925;-57
2022/12/31 09:30:34;;;;;;;;;;;;;;;;;;5015847;28;19983;-57
2022/12/31 09:33:00;;;;;;;;;;;;;;;;;;5020479;28;19971;-57
2022/12/31 09:35:26;;;;;;;;;;;;;;;;;;5025157;28;19925;-58
2022/12/31 09:37:52;;;;;;;;;;;;;;;;;;5023130;28;20400;-57
2022/12/31 09:40:18;;;;;;;;;;;;;;;;;;5025934;28;19944;-57
2022/12/31 09:42:44;;;;;;;;;;;;;;;;;;5020112;28;19921;-57
2022/12/31 09:45:10;;;;;;;;;;;;;;;;;;5016092;28;19929;-59
2022/12/31 09:47:36;;;;;;;;;;;;;;;;;;5018570;28;19975;-56
2022/12/31 09:50:02;;;;;;;;;;;;;;;;;;5018614;28;19921;-57
2022/12/31 09:52:28;;;;;;;;;;;;;;;;;;5021512;28;19924;-57
2022/12/31 09:54:53;;;;;;;;;;;;;;;;;;5022657;28;20030;-56
2022/12/31 09:57:19;;;;;;;;;;;;;;;;;;5019195;28;20074;-57
2022/12/31 09:59:45;;;;;;;;;;;;;;;;;;5018246;28;20862;-56
2022/12/31 10:02:11;;;;;;;;;;;;;;;;;;5022655;28;19928;-56
2022/12/31 10:04:37;;;;;;;;;;;;;;;;;;5023689;28;19937;-56
2022/12/31 10:07:03;;;;;;;;;;;;;;;;;;5021071;28;19921;-57
2022/12/31 10:09:29;;;;;;;;;;;;;;;;;;5023869;28;20459;-56
2022/12/31 10:11:55;;;;;;;;;;;;;;;;;;5015043;28;19921;-57
2022/12/31 10:14:21;;;;;;;;;;;;;;;;;;5018856;28;20485;-56
2022/12/31 10:16:47;;;;;;;;;;;;;;;;;;5016251;28;19967;-56
2022/12/31 10:19:13;;;;;;;;;;;;;;;;;;5020376;28;20015;-56
2022/12/31 10:21:38;;;;;;;;;;;;;;;;;;5019341;28;20075;-57
2022/12/31 10:24:04;;;;;;;;;;;;;;;;;;5018393;28;20208;-56
2022/12/31 10:26:30;;;;;;;;;;;;;;;;;;5017771;28;19930;-56
2022/12/31 10:28:56;;;;;;;;;;;;;;;;;;5016436;28;20432;-56
2022/12/31 10:31:22;;;;;;;;;;;;;;;;;;5019226;28;20834;-56
2022/12/31 10:33:48;;;;;;;;;;;;;;;;;;5018819;28;19986;-56
2022/12/31 10:36:14;;;;;;;;;;;;;;;;;;5014550;28;19975;-57
2022/12/31 10:38:40;;;;;;;;;;;;;;;;;;5015725;28;19921;-57
2022/12/31 10:41:06;;;;;;;;;;;;;;;;;;5018096;28;20379;-57
2022/12/31 10:43:32;;;;;;;;;;;;;;;;;;5017016;28;20423;-56
2022/12/31 10:45:58;;;;;;;;;;;;;;;;;;5018030;28;19921;-56
2022/12/31 10:48:24;;;;;;;;;;;;;;;;;;5025757;28;19927;-56
2022/12/31 10:50:50;;;;;;;;;;;;;;;;;;5025135;28;19922;-57
2022/12/31 10:53:17;;;;;;;;;;;;;;;;;;5024757;28;19932;-56
2022/12/31 10:55:42;;;;;;;;;;;;;;;;;;5026248;28;19928;-58
2022/12/31 10:58:08;;;;;;;;;;;;;;;;;;5024261;28;19921;-56
2022/12/31 11:00:34;;;;;;;;;;;;;;;;;;5021957;28;20338;-57
2022/12/31 11:03:00;;;;;;;;;;;;;;;;;;5023154;28;19925;-56
2022/12/31 11:05:26;;;;;;;;;;;;;;;;;;5024183;28;19922;-57
2022/12/31 11:07:53;;;;;;;;;;;;;;;;;;5017466;28;19968;-57
2022/12/31 11:10:19;;;;;;;;;;;;;;;;;;5027133;28;19928;-57
2022/12/31 11:12:45;;;;;;;;;;;;;;;;;;5024637;28;20431;-57
2022/12/31 11:15:11;;;;;;;;;;;;;;;;;;5042616;28;19927;-56
2022/12/31 11:17:37;;;;;;;;;;;;;;;;;;5027417;28;19971;-57
2022/12/31 11:20:03;;;;;;;;;;;;;;;;;;5028236;28;20434;-56
2022/12/31 11:22:29;;;;;;;;;;;;;;;;;;5027330;28;19925;-57
2022/12/31 11:24:55;;;;;;;;;;;;;;;;;;5027668;28;19921;-57
2022/12/31 11:27:21;;;;;;;;;;;;;;;;;;5026356;28;19928;-56
2022/12/31 11:29:47;;;;;;;;;;;;;;;;;;5027030;28;19929;-57
2022/12/31 11:32:13;;;;;;;;;;;;;;;;;;5027307;28;20426;-56
2022/12/31 11:34:39;;;;;;;;;;;;;;;;;;5026844;28;21134;-57
2022/12/31 11:37:04;;;;;;;;;;;;;;;;;;5027535;28;19921;-56
2022/12/31 11:39:30;;;;;;;;;;;;;;;;;;5027257;28;19921;-56
2022/12/31 11:41:56;;;;;;;;;;;;;;;;;;5027635;28;19952;-57
2022/12/31 11:44:22;;;;;;;;;;;;;;;;;;5027077;28;19922;-57
2022/12/31 11:46:48;;;;;;;;;;;;;;;;;;5026076;28;20295;-56
2022/12/31 11:49:15;;;;;;;;;;;;;;;;;;5026820;28;19964;-56
2022/12/31 11:51:41;;;;;;;;;;;;;;;;;;5028217;28;19975;-56
2022/12/31 11:54:07;;;;;;;;;;;;;;;;;;5027036;28;19972;-57
2022/12/31 11:56:32;;;;;;;;;;;;;;;;;;5027129;28;19968;-56
2022/12/31 11:59:00;;;;;;;;;;;;;;;;;;5026592;28;19975;-57
2022/12/31 12:01:26;;;;;;;;;;;;;;;;;;5028967;28;20693;-57
2022/12/31 12:03:52;;;;;;;;;;;;;;;;;;5026965;28;19921;-57
2022/12/31 12:06:18;;;;;;;;;;;;;;;;;;5028141;28;19921;-56
2022/12/31 12:08:44;;;;;;;;;;;;;;;;;;5028573;28;19965;-56
2022/12/31 12:11:10;;;;;;;;;;;;;;;;;;5028425;28;20457;-56
2022/12/31 12:13:36;;;;;;;;;;;;;;;;;;5024847;28;19971;-56
2022/12/31 12:16:02;;;;;;;;;;;;;;;;;;5026691;28;20449;-56
2022/12/31 12:18:28;;;;;;;;;;;;;;;;;;5026411;28;19921;-56
2022/12/31 12:20:54;;;;;;;;;;;;;;;;;;5025975;28;19929;-57
2022/12/31 12:23:20;;;;;;;;;;;;;;;;;;5027097;28;19924;-57
2022/12/31 12:25:46;;;;;;;;;;;;;;;;;;5028104;28;20229;-60
2022/12/31 12:28:12;;;;;;;;;;;;;;;;;;5023738;28;20320;-59
2022/12/31 12:30:40;;;;;;;;;;;;;;;;;;5024052;28;19935;-59
2022/12/31 12:33:07;;;;;;;;;;;;;;;;;;5025532;28;19928;-60
2022/12/31 12:35:33;;;;;;;;;;;;;;;;;;5020442;28;20054;-59
2022/12/31 12:37:59;;;;;;;;;;;;;;;;;;5024059;28;19929;-59
2022/12/31 12:40:25;;;;;;;;;;;;;;;;;;5019572;28;19926;-59
2022/12/31 12:42:51;;;;;;;;;;;;;;;;;;5022107;28;20342;-60
2022/12/31 12:45:17;;;;;;;;;;;;;;;;;;5016689;28;20039;-59
2022/12/31 12:47:43;;;;;;;;;;;;;;;;;;5020091;28;19921;-60
2022/12/31 12:50:08;;;;;;;;;;;;;;;;;;5022318;28;19925;-60
2022/12/31 12:52:34;;;;;;;;;;;;;;;;;;5020172;28;20479;-59
2022/12/31 12:55:00;;;;;;;;;;;;;;;;;;5022296;28;19921;-62
2022/12/31 12:57:26;;;;;;;;;;;;;;;;;;5022506;28;19956;-60
2022/12/31 12:59:52;;;;;;;;;;;;;;;;;;5021496;28;19936;-60
2022/12/31 13:02:18;;;;;;;;;;;;;;;;;;5018812;28;19921;-60
2022/12/31 13:04:44;;;;;;;;;;;;;;;;;;5017435;28;19928;-60
2022/12/31 13:07:10;;;;;;;;;;;;;;;;;;5021414;28;19983;-62
2022/12/31 13:09:37;;;;;;;;;;;;;;;;;;5052234;28;19933;-60
2022/12/31 13:12:03;;;;;;;;;;;;;;;;;;5019519;28;19925;-59
2022/12/31 13:14:29;;;;;;;;;;;;;;;;;;5020442;28;20008;-60
2022/12/31 13:16:55;;;;;;;;;;;;;;;;;;5016760;28;20752;-60
2022/12/31 13:19:21;;;;;;;;;;;;;;;;;;5023448;28;20308;-60
2022/12/31 13:21:47;;;;;;;;;;;;;;;;;;5019567;28;20443;-60
2022/12/31 13:24:13;;;;;;;;;;;;;;;;;;5018878;28;19925;-60
2022/12/31 13:26:39;;;;;;;;;;;;;;;;;;5052194;28;19981;-60
2022/12/31 13:29:05;;;;;;;;;;;;;;;;;;5017603;28;19925;-59
2022/12/31 13:31:31;;;;;;;;;;;;;;;;;;5018149;28;19964;-60
2022/12/31 13:33:56;;;;;;;;;;;;;;;;;;5017111;28;19932;-60
2022/12/31 13:36:22;;;;;;;;;;;;;;;;;;5022058;28;19975;-60
2022/12/31 13:38:48;;;;;;;;;;;;;;;;;;5020275;28;19926;-60
2022/12/31 13:41:14;;;;;;;;;;;;;;;;;;5019191;28;19921;-60
2022/12/31 13:43:40;;;;;;;;;;;;;;;;;;5017034;28;19925;-60
2022/12/31 13:46:06;;;;;;;;;;;;;;;;;;5025273;28;20491;-60
2022/12/31 13:48:32;;;;;;;;;;;;;;;;;;5024134;28;20418;-60
2022/12/31 13:50:59;;;;;;;;;;;;;;;;;;5024408;28;20003;-60
2022/12/31 13:53:25;;;;;;;;;;;;;;;;;;5023274;28;19921;-60
2022/12/31 13:55:51;;;;;;;;;;;;;;;;;;5024584;28;19921;-60
2022/12/31 13:58:17;;;;;;;;;;;;;;;;;;5023487;28;20426;-60
2022/12/31 14:00:43;;;;;;;;;;;;;;;;;;5026413;28;19947;-60
2022/12/31 14:03:09;;;;;;;;;;;;;;;;;;5025241;28;19925;-60
2022/12/31 14:05:35;;;;;;;;;;;;;;;;;;5025121;28;19967;-60
2022/12/31 14:08:01;;;;;;;;;;;;;;;;;;5024143;28;19925;-60
2022/12/31 14:10:27;;;;;;;;;;;;;;;;;;5025384;28;19925;-60
2022/12/31 14:12:53;;;;;;;;;;;;;;;;;;5023487;28;20350;-60
2022/12/31 14:15:19;;;;;;;;;;;;;;;;;;5025063;28;20331;-60
2022/12/31 14:17:45;;;;;;;;;;;;;;;;;;5024450;28;22016;-60
2022/12/31 14:20:10;;;;;;;;;;;;;;;;;;5025327;28;19975;-60
2022/12/31 14:22:36;;;;;;;;;;;;;;;;;;5023783;28;19979;-60
2022/12/31 14:25:02;;;;;;;;;;;;;;;;;;5025505;28;20299;-60
2022/12/31 14:27:28;;;;;;;;;;;;;;;;;;5024822;28;19985;-60
2022/12/31 14:29:54;;;;;;;;;;;;;;;;;;5024563;28;19921;-60
2022/12/31 14:32:20;;;;;;;;;;;;;;;;;;5026544;28;20003;-60
2022/12/31 14:34:46;;;;;;;;;;;;;;;;;;5024421;28;20000;-60
2022/12/31 14:37:12;;;;;;;;;;;;;;;;;;5024460;28;19925;-59
2022/12/31 14:39:38;;;;;;;;;;;;;;;;;;5023498;28;20319;-60
2022/12/31 14:42:04;;;;;;;;;;;;;;;;;;5025417;28;20391;-60
2022/12/31 14:44:30;;;;;;;;;;;;;;;;;;5024718;28;20434;-60
2022/12/31 14:46:56;;;;;;;;;;;;;;;;;;5024735;28;20450;-60
2022/12/31 14:49:22;;;;;;;;;;;;;;;;;;5024919;28;19964;-60
2022/12/31 14:51:48;;;;;;;;;;;;;;;;;;5024376;28;20304;-67
2022/12/31 14:54:14;;;;;;;;;;;;;;;;;;5026973;28;19921;-64
2022/12/31 14:56:40;;;;;;;;;;;;;;;;;;5023129;28;20392;-62
2022/12/31 14:59:05;;;;;;;;;;;;;;;;;;5024356;28;20449;-62
2022/12/31 15:01:32;;;;;;;;;;;;;;;;;;5021978;28;19928;-63
2022/12/31 15:03:58;;;;;;;;;;;;;;;;;;5019831;28;20020;-62
2022/12/31 15:06:24;;;;;;;;;;;;;;;;;;5016979;28;19963;-62
2022/12/31 15:08:50;;;;;;;;;;;;;;;;;;5017176;28;19931;-62
2022/12/31 15:11:16;;;;;;;;;;;;;;;;;;5019115;28;19921;-62
2022/12/31 15:13:42;;;;;;;;;;;;;;;;;;5017600;28;19943;-62
2022/12/31 15:16:08;;;;;;;;;;;;;;;;;;5022525;28;20415;-62
2022/12/31 15:18:34;;;;;;;;;;;;;;;;;;5024067;28;19921;-62
2022/12/31 15:20:59;;;;;;;;;;;;;;;;;;5020846;28;19925;-63
2022/12/31 15:23:25;;;;;;;;;;;;;;;;;;5022144;28;20342;-63
2022/12/31 15:25:51;;;;;;;;;;;;;;;;;;5021298;28;20859;-63
2022/12/31 15:28:17;;;;;;;;;;;;;;;;;;5022435;28;20780;-62
2022/12/31 15:30:43;;;;;;;;;;;;;;;;;;5023654;28;20003;-63
2022/12/31 15:33:09;;;;;;;;;;;;;;;;;;5027505;28;19920;-63
2022/12/31 15:35:35;;;;;;;;;;;;;;;;;;5038763;28;20396;-63
2022/12/31 15:38:01;;;;;;;;;;;;;;;;;;5017887;28;19933;-63
2022/12/31 15:40:28;;;;;;;;;;;;;;;;;;5022818;28;20599;-63
2022/12/31 15:42:55;;;;;;;;;;;;;;;;;;5023070;28;19925;-63
2022/12/31 15:45:21;;;;;;;;;;;;;;;;;;5021130;28;19932;-63
2022/12/31 15:47:47;;;;;;;;;;;;;;;;;;5024255;28;20003;-63
2022/12/31 15:50:13;;;;;;;;;;;;;;;;;;5025406;28;19927;-63
2022/12/31 15:52:39;;;;;;;;;;;;;;;;;;5022211;28;19961;-63
2022/12/31 15:55:05;;;;;;;;;;;;;;;;;;5020440;28;20379;-63
2022/12/31 15:57:31;;;;;;;;;;;;;;;;;;5023968;28;19921;-64
2022/12/31 15:59:57;;;;;;;;;;;;;;;;;;5021090;28;19925;-63
2022/12/31 16:02:23;;;;;;;;;;;;;;;;;;5023433;28;19921;-63
2022/12/31 16:04:49;;;;;;;;;;;;;;;;;;5021786;28;19925;-64
2022/12/31 16:07:15;;;;;;;;;;;;;;;;;;5018070;28;19925;-64
2022/12/31 16:09:41;;;;;;;;;;;;;;;;;;5022614;28;19972;-63
2022/12/31 16:12:07;;;;;;;;;;;;;;;;;;5021688;28;19921;-64
2022/12/31 16:14:33;;;;;;;;;;;;;;;;;;5020981;28;19926;-63
2022/12/31 16:16:59;;;;;;;;;;;;;;;;;;5020170;28;20628;-64
2022/12/31 16:19:25;;;;;;;;;;;;;;;;;;5022601;28;19921;-64
2022/12/31 16:21:50;;;;;;;;;;;;;;;;;;5021011;28;19921;-63
2022/12/31 16:24:16;;;;;;;;;;;;;;;;;;5023586;28;19932;-64
2022/12/31 16:26:42;;;;;;;;;;;;;;;;;;5020370;28;19944;-64
2022/12/31 16:29:08;;;;;;;;;;;;;;;;;;5020355;28;20418;-63
2022/12/31 16:31:34;;;;;;;;;;;;;;;;;;5020726;28;20822;-63
2022/12/31 16:34:00;;;;;;;;;;;;;;;;;;5019991;28;19925;-64
2022/12/31 16:36:26;;;;;;;;;;;;;;;;;;5024557;28;20741;-64
2022/12/31 16:38:58;;;;;;;;;;;;;;;;;;5024021;28;19921;-64
2022/12/31 16:41:24;;;;;;;;;;;;;;;;;;5025242;28;21190;-64
2022/12/31 16:43:50;;;;;;;;;;;;;;;;;;5021932;28;19976;-63
2022/12/31 16:46:16;;;;;;;;;;;;;;;;;;5022073;28;19971;-63
2022/12/31 16:48:41;;;;;;;;;;;;;;;;;;5019933;28;20281;-63